Portada
METAR-TAF:

METAR-TAF

Aeroports :

Jakarta, Java, Indonèsia

latitud: 06-07S, longitud: 106-39E, altitud: 8 m

Observació

L'informe es va fer fa 18 minuts, a les 00:00 UTC
Vent 4 kt amb direcció variable
Temperatura 26°C
Humitat 89%
Pressió 1013 hPa
Visibilitat: 5000 m
Núvols disperses a una alçada de 2000 ft
calitja

METAR: WIII 210000Z VRB04KT 5000 HZ SCT020 26/24 Q1013 NOSIG

Hora: 07:18 (00:18 UTC)

Pronòstic

L'informe es va fer fa 1 hora i 18 minuts, a les 23:00 UTC
Pronòstic vàlid del 21 a les 00 UTC al 22 a les 06 UTC
Vent 10 kt del Oest/Nord-Oest
Visibilitat: 9000 m
Núvols disperses a una alçada de 2000 ft
Temporalment
l' 21 a les 10 UTC al 21 a les 14 UTC
Visibilitat: 3000 m
Escasses núvols a una alçada de 1800 ft, Cumulonimbus.
Cel ennuvolat a una alçada de 2000 ft
tempesta, pluja

TAF: WIII 202300Z 2100/2206 29010KT 9000 SCT020 TEMPO 2110/2114 3000 TSRA FEW018CB BKN020

Observacions i pronòstics meteorològics de més de 4000 aeroports (METAR i TAF).

Les estacions disponibles són els punts grocs i vermells al mapa.

Posi el ratolí al punt desitjat per veure el nom de l'estació.

Feu clic per veure les observacions i els pronòstics meteorològics.

Per canviar el mapa: feu clic els botons verds amb una creu de color negre per apropar; al botó verd amb un guió per allunyar la imatge; o en les fletxes verdes per a mapes adjacents.


METAR-TAF: